createdAt,value
2022-12-11T00:02:08.196Z,16.73
2022-12-11T00:04:34.649Z,18.25
2022-12-11T00:07:00.954Z,16.98
2022-12-11T00:09:27.233Z,18.00
2022-12-11T00:11:53.543Z,25.02
2022-12-11T00:14:19.906Z,18.60
2022-12-11T00:16:48.016Z,17.27
2022-12-11T00:19:14.323Z,23.58
2022-12-11T00:21:40.862Z,18.30
2022-12-11T00:24:07.254Z,18.20
2022-12-11T00:26:33.517Z,16.92
2022-12-11T00:28:59.931Z,18.00
2022-12-11T00:31:26.317Z,13.02
2022-12-11T00:33:52.884Z,19.10
2022-12-11T00:36:20.509Z,18.02
2022-12-11T00:38:46.929Z,16.10
2022-12-11T00:41:13.199Z,13.77
2022-12-11T00:43:39.487Z,13.63
2022-12-11T00:46:05.932Z,19.27
2022-12-11T00:48:32.475Z,14.45
2022-12-11T00:50:58.829Z,17.83
2022-12-11T00:53:25.437Z,13.18
2022-12-11T00:55:52.058Z,14.95
2022-12-11T00:58:18.384Z,16.30
2022-12-11T01:00:44.825Z,13.13
2022-12-11T01:03:13.213Z,16.33
2022-12-11T01:05:39.520Z,13.68
2022-12-11T01:08:06.271Z,13.73
2022-12-11T01:10:33.186Z,9.88
2022-12-11T01:13:01.006Z,11.25
2022-12-11T01:15:29.070Z,14.07
2022-12-11T01:17:55.531Z,13.27
2022-12-11T01:20:22.769Z,12.20
2022-12-11T01:22:51.896Z,12.30
2022-12-11T01:25:18.249Z,15.82
2022-12-11T01:27:44.520Z,14.35
2022-12-11T01:30:11.039Z,16.90
2022-12-11T01:32:37.618Z,18.92
2022-12-11T01:35:04.981Z,16.02
2022-12-11T01:37:31.296Z,13.95
2022-12-11T01:39:57.576Z,13.75
2022-12-11T01:42:25.170Z,17.08
2022-12-11T01:44:51.415Z,17.15
2022-12-11T01:47:17.699Z,14.88
2022-12-11T01:49:44.002Z,13.88
2022-12-11T01:52:16.606Z,15.30
2022-12-11T01:54:43.208Z,16.35
2022-12-11T01:57:11.062Z,15.73
2022-12-11T01:59:38.839Z,19.33
2022-12-11T02:02:12.185Z,13.80
2022-12-11T02:04:39.970Z,15.30
2022-12-11T02:07:06.265Z,16.27
2022-12-11T02:09:33.969Z,17.58
2022-12-11T02:12:12.210Z,18.02
2022-12-11T02:14:57.386Z,17.98
2022-12-11T02:17:29.516Z,21.17
2022-12-11T02:20:01.647Z,18.25
2022-12-11T02:22:33.992Z,19.85
2022-12-11T02:25:13.550Z,20.67
2022-12-11T02:27:56.516Z,23.27
2022-12-11T02:30:23.653Z,18.70
2022-12-11T02:32:50.304Z,19.27
2022-12-11T02:35:21.511Z,20.17
2022-12-11T02:37:49.123Z,20.60
2022-12-11T02:40:17.846Z,24.05
2022-12-11T02:42:46.815Z,23.25
2022-12-11T02:45:13.884Z,24.00
2022-12-11T02:47:41.574Z,29.75
2022-12-11T02:50:10.194Z,29.08
2022-12-11T02:52:37.560Z,24.98
2022-12-11T02:55:06.292Z,24.23
2022-12-11T02:57:51.210Z,27.48
2022-12-11T03:00:18.520Z,23.92
2022-12-11T03:02:45.471Z,23.27
2022-12-11T03:05:12.739Z,22.35
2022-12-11T03:07:40.724Z,27.20
2022-12-11T03:10:08.424Z,21.92
2022-12-11T03:12:37.341Z,23.40
2022-12-11T03:15:05.428Z,24.63
2022-12-11T03:17:31.878Z,22.73
2022-12-11T03:20:21.497Z,23.50
2022-12-11T03:22:54.006Z,27.70
2022-12-11T03:25:26.232Z,25.67
2022-12-11T03:27:55.261Z,23.92
2022-12-11T03:30:22.760Z,28.52
2022-12-11T03:32:51.858Z,29.98
2022-12-11T03:35:21.524Z,25.10
2022-12-11T03:37:48.536Z,26.48
2022-12-11T03:40:16.346Z,26.38
2022-12-11T03:42:45.090Z,27.02
2022-12-11T03:45:11.941Z,19.92
2022-12-11T03:47:39.554Z,22.63
2022-12-11T03:50:06.725Z,22.95
2022-12-11T03:52:33.496Z,27.95
2022-12-11T03:55:01.623Z,23.48
2022-12-11T03:57:31.541Z,23.90
2022-12-11T03:59:58.102Z,29.38
2022-12-11T04:02:24.904Z,23.80
2022-12-11T04:04:51.307Z,25.90
2022-12-11T04:07:17.584Z,23.52
2022-12-11T04:09:43.857Z,30.70
2022-12-11T04:12:10.159Z,28.05
2022-12-11T04:14:55.342Z,23.27
2022-12-11T04:17:40.203Z,30.52
2022-12-11T04:20:25.509Z,32.33
2022-12-11T04:23:10.313Z,27.20
2022-12-11T04:25:36.950Z,29.48
2022-12-11T04:28:03.291Z,30.23
2022-12-11T04:30:34.158Z,24.63
2022-12-11T04:33:00.935Z,27.42
2022-12-11T04:35:27.232Z,29.27
2022-12-11T04:37:53.588Z,31.00
2022-12-11T04:40:20.256Z,28.52
2022-12-11T04:42:46.546Z,27.50
2022-12-11T04:45:13.562Z,26.70
2022-12-11T04:47:40.888Z,31.67
2022-12-11T04:50:08.760Z,26.98
2022-12-11T04:52:35.110Z,25.95
2022-12-11T04:55:01.472Z,27.42
2022-12-11T04:57:27.963Z,28.85
2022-12-11T04:59:54.242Z,31.02
2022-12-11T05:02:20.508Z,30.85
2022-12-11T05:04:46.785Z,28.48
2022-12-11T05:07:13.121Z,31.25
2022-12-11T05:09:39.506Z,32.83
2022-12-11T05:12:06.089Z,28.00
2022-12-11T05:14:32.718Z,27.60
2022-12-11T05:16:59.538Z,32.55
2022-12-11T05:19:25.972Z,31.75
2022-12-11T05:21:52.385Z,24.38
2022-12-11T05:24:18.663Z,29.23
2022-12-11T05:26:45.055Z,29.45
2022-12-11T05:29:11.472Z,30.65
2022-12-11T05:31:37.835Z,29.60
2022-12-11T05:34:04.295Z,29.50
2022-12-11T05:36:32.443Z,28.75
2022-12-11T05:39:00.544Z,28.90
2022-12-11T05:41:28.004Z,33.25
2022-12-11T05:43:54.289Z,31.60
2022-12-11T05:46:22.621Z,35.35
2022-12-11T05:48:49.797Z,31.88
2022-12-11T05:51:16.714Z,34.35
2022-12-11T05:53:43.503Z,30.40
2022-12-11T05:56:14.123Z,29.07
2022-12-11T05:58:40.773Z,34.97
2022-12-11T06:01:08.764Z,29.88
2022-12-11T06:03:35.128Z,32.22
2022-12-11T06:06:03.073Z,30.00
2022-12-11T06:08:29.802Z,31.35
2022-12-11T06:10:56.287Z,29.88
2022-12-11T06:13:23.798Z,29.85
2022-12-11T06:15:50.202Z,36.08
2022-12-11T06:18:16.726Z,37.95
2022-12-11T06:20:43.144Z,30.83
2022-12-11T06:23:09.412Z,34.05
2022-12-11T06:25:38.154Z,34.85
2022-12-11T06:28:04.520Z,34.28
2022-12-11T06:30:39.093Z,36.55
2022-12-11T06:33:06.044Z,32.22
2022-12-11T06:35:36.141Z,35.08
2022-12-11T06:38:06.476Z,29.67
2022-12-11T06:40:32.799Z,33.40
2022-12-11T06:42:59.070Z,30.95
2022-12-11T06:45:25.532Z,33.58
2022-12-11T06:47:51.824Z,35.88
2022-12-11T06:50:18.189Z,31.73
2022-12-11T06:52:44.465Z,33.80
2022-12-11T06:55:11.114Z,34.10
2022-12-11T06:57:37.773Z,35.03
2022-12-11T07:00:04.461Z,36.70
2022-12-11T07:02:30.794Z,32.70
2022-12-11T07:04:57.133Z,35.55
2022-12-11T07:07:23.482Z,38.67
2022-12-11T07:09:49.843Z,35.70
2022-12-11T07:12:16.636Z,36.22
2022-12-11T07:14:43.269Z,41.20
2022-12-11T07:17:09.570Z,37.55
2022-12-11T07:19:35.931Z,32.53
2022-12-11T07:22:02.211Z,35.03
2022-12-11T07:24:28.498Z,36.40
2022-12-11T07:26:54.772Z,35.90
2022-12-11T07:29:21.136Z,36.72
2022-12-11T07:31:47.997Z,37.38
2022-12-11T07:34:14.422Z,37.95
2022-12-11T07:36:40.971Z,32.90
2022-12-11T07:39:08.429Z,36.38
2022-12-11T07:41:34.858Z,33.92
2022-12-11T07:44:01.359Z,40.50
2022-12-11T07:46:28.660Z,35.15
2022-12-11T07:48:55.226Z,35.58
2022-12-11T07:51:28.635Z,37.35
2022-12-11T07:53:56.604Z,39.58
2022-12-11T07:56:23.262Z,38.78
2022-12-11T07:58:49.791Z,37.53
2022-12-11T08:01:20.586Z,35.00
2022-12-11T08:03:47.000Z,36.40
2022-12-11T08:06:13.754Z,32.78
2022-12-11T08:08:41.375Z,32.72
2022-12-11T08:11:09.117Z,32.50
2022-12-11T08:13:36.116Z,31.98
2022-12-11T08:16:06.197Z,34.70
2022-12-11T08:18:35.664Z,40.97
2022-12-11T08:21:05.723Z,34.60
2022-12-11T08:23:32.041Z,36.22
2022-12-11T08:25:58.317Z,37.47
2022-12-11T08:28:25.408Z,35.45
2022-12-11T08:30:53.511Z,36.92
2022-12-11T08:33:20.010Z,36.00
2022-12-11T08:35:46.545Z,37.33
2022-12-11T08:38:12.813Z,40.08
2022-12-11T08:40:39.084Z,38.78
2022-12-11T08:43:05.360Z,35.67
2022-12-11T08:45:31.679Z,40.60
2022-12-11T08:48:01.042Z,39.83
2022-12-11T08:50:27.349Z,39.72
2022-12-11T08:52:53.843Z,38.97
2022-12-11T08:55:21.936Z,38.67
2022-12-11T08:57:48.214Z,34.17
2022-12-11T09:00:15.396Z,38.42
2022-12-11T09:02:41.746Z,38.72
2022-12-11T09:05:09.611Z,39.40
2022-12-11T09:07:37.204Z,39.25
2022-12-11T09:10:07.263Z,40.22
2022-12-11T09:12:34.239Z,38.20
2022-12-11T09:15:00.610Z,39.08
2022-12-11T09:17:26.914Z,38.58
2022-12-11T09:19:53.193Z,42.83
2022-12-11T09:22:19.480Z,40.78
2022-12-11T09:24:46.484Z,35.00
2022-12-11T09:27:13.019Z,40.70
2022-12-11T09:29:39.595Z,45.55
2022-12-11T09:32:05.944Z,39.78
2022-12-11T09:34:32.278Z,39.47
2022-12-11T09:36:59.446Z,43.97
2022-12-11T09:39:25.791Z,45.90
2022-12-11T09:41:52.120Z,39.67
2022-12-11T09:44:31.333Z,38.80
2022-12-11T09:46:58.331Z,41.63
2022-12-11T09:49:32.000Z,39.47
2022-12-11T09:52:00.494Z,41.67
2022-12-11T09:54:26.932Z,43.72
2022-12-11T09:57:11.645Z,41.45
2022-12-11T09:59:48.702Z,43.67
2022-12-11T10:02:23.158Z,42.80
2022-12-11T10:04:59.134Z,40.17
2022-12-11T10:07:38.546Z,38.17
2022-12-11T10:10:28.229Z,49.08
2022-12-11T10:13:00.818Z,45.67
2022-12-11T10:15:38.320Z,37.85
2022-12-11T10:18:07.156Z,42.00
2022-12-11T10:20:36.584Z,44.70
2022-12-11T10:23:03.924Z,41.25
2022-12-11T10:25:32.060Z,41.63
2022-12-11T10:27:59.951Z,39.95
2022-12-11T10:30:34.355Z,47.67
2022-12-11T10:33:03.790Z,48.50
2022-12-11T10:35:30.158Z,50.58
2022-12-11T10:38:23.149Z,37.60
2022-12-11T10:40:51.146Z,45.35
2022-12-11T10:43:17.496Z,40.15
2022-12-11T10:45:50.575Z,48.72
2022-12-11T10:48:17.252Z,46.30
2022-12-11T10:50:45.951Z,46.67
2022-12-11T10:53:21.659Z,45.10
2022-12-11T10:55:48.341Z,47.00
2022-12-11T10:58:19.761Z,42.30
2022-12-11T11:00:46.479Z,44.85
2022-12-11T11:03:39.217Z,47.22
2022-12-11T11:06:17.193Z,48.50
2022-12-11T11:08:45.465Z,43.25
2022-12-11T11:11:20.600Z,40.42
2022-12-11T11:13:46.911Z,42.80
2022-12-11T11:16:15.486Z,41.60
2022-12-11T11:18:43.366Z,64.82
2022-12-11T11:21:16.684Z,45.15
2022-12-11T11:23:47.267Z,44.40
2022-12-11T11:26:17.670Z,45.80
2022-12-11T11:28:48.183Z,36.65
2022-12-11T11:33:57.403Z,44.65
2022-12-11T11:36:24.786Z,43.22
2022-12-11T11:38:53.825Z,40.25
2022-12-11T11:41:24.056Z,42.28
2022-12-11T11:43:55.372Z,39.05
2022-12-11T11:46:30.296Z,43.55
2022-12-11T11:49:02.623Z,46.05
2022-12-11T11:51:35.060Z,46.97
2022-12-11T11:54:02.957Z,45.10
2022-12-11T11:56:31.861Z,46.22
2022-12-11T11:59:02.208Z,42.42
2022-12-11T12:01:28.818Z,51.45
2022-12-11T12:03:55.243Z,51.65
2022-12-11T12:06:27.619Z,44.95
2022-12-11T12:09:12.955Z,50.40
2022-12-11T12:11:49.484Z,43.38
2022-12-11T12:14:51.224Z,44.38
2022-12-11T12:17:17.490Z,53.67
2022-12-11T12:19:53.325Z,47.78
2022-12-11T12:22:38.331Z,39.83
2022-12-11T12:25:18.578Z,71.72
2022-12-11T12:27:53.030Z,81.60
2022-12-11T12:30:22.970Z,48.42
2022-12-11T12:33:07.276Z,53.67
2022-12-11T12:35:34.166Z,47.47
2022-12-11T12:38:20.674Z,71.00
2022-12-11T12:41:01.965Z,45.13
2022-12-11T12:43:47.676Z,47.92
2022-12-11T12:46:26.195Z,46.10
2022-12-11T12:48:54.498Z,57.63
2022-12-11T12:51:21.148Z,49.28
2022-12-11T12:53:51.403Z,43.83
2022-12-11T12:56:17.921Z,47.60
2022-12-11T12:58:45.619Z,46.92
2022-12-11T13:01:17.064Z,51.78
2022-12-11T13:04:01.659Z,41.20
2022-12-11T13:06:30.944Z,45.00
2022-12-11T13:08:57.672Z,30.77
2022-12-11T13:11:33.899Z,28.83
2022-12-11T13:14:07.797Z,32.70
2022-12-11T13:16:35.622Z,30.17
2022-12-11T13:19:02.016Z,27.30
2022-12-11T13:21:28.337Z,28.10
2022-12-11T13:23:54.942Z,28.15
2022-12-11T13:26:31.506Z,32.72
2022-12-11T13:28:58.239Z,31.30
2022-12-11T13:31:33.314Z,29.15
2022-12-11T13:34:06.937Z,27.02
2022-12-11T13:36:35.283Z,29.15
2022-12-11T13:39:18.295Z,29.55
2022-12-11T13:41:46.741Z,26.10
2022-12-11T13:44:19.773Z,25.02
2022-12-11T13:46:46.452Z,21.67
2022-12-11T13:49:20.940Z,26.88
2022-12-11T13:51:54.751Z,22.50
2022-12-11T13:54:21.037Z,28.50
2022-12-11T13:56:57.712Z,24.27
2022-12-11T13:59:25.898Z,26.92
2022-12-11T14:01:53.733Z,31.20
2022-12-11T14:04:20.881Z,27.38
2022-12-11T14:06:47.234Z,29.15
2022-12-11T14:09:18.517Z,24.50
2022-12-11T14:11:46.297Z,24.65
2022-12-11T14:14:20.692Z,25.20
2022-12-11T14:16:49.083Z,29.15
2022-12-11T14:19:17.056Z,24.13
2022-12-11T14:21:44.444Z,20.63
2022-12-11T14:24:11.933Z,27.05
2022-12-11T14:26:38.794Z,25.33
2022-12-11T14:29:05.574Z,23.88
2022-12-11T14:31:34.427Z,22.10
2022-12-11T14:34:11.364Z,24.63
2022-12-11T14:36:39.296Z,21.88
2022-12-11T14:39:10.420Z,27.85
2022-12-11T14:41:46.048Z,21.42
2022-12-11T14:44:14.335Z,21.45
2022-12-11T14:46:44.707Z,21.17
2022-12-11T14:49:21.536Z,24.27
2022-12-11T14:51:48.162Z,24.70
2022-12-11T14:54:22.650Z,25.08
2022-12-11T14:56:49.106Z,23.40
2022-12-11T14:59:25.476Z,19.88
2022-12-11T15:02:02.031Z,19.55
2022-12-11T15:04:32.405Z,20.73
2022-12-11T15:06:59.116Z,21.00
2022-12-11T15:09:27.141Z,21.05
2022-12-11T15:11:55.046Z,20.90
2022-12-11T15:14:22.403Z,20.05
2022-12-11T15:16:49.552Z,20.30
2022-12-11T15:19:27.803Z,18.92
2022-12-11T15:21:54.425Z,18.05
2022-12-11T15:24:26.069Z,18.65
2022-12-11T15:26:52.472Z,19.58
2022-12-11T15:29:28.090Z,20.73
2022-12-11T15:32:09.806Z,22.58
2022-12-11T15:34:43.176Z,20.50
2022-12-11T15:37:23.411Z,19.40
2022-12-11T15:39:50.172Z,20.95
2022-12-11T15:42:20.757Z,20.38
2022-12-11T15:47:31.576Z,23.33
2022-12-11T15:50:02.773Z,26.88
2022-12-11T15:52:29.227Z,28.08
2022-12-11T15:54:55.506Z,25.67
2022-12-11T15:57:23.403Z,26.77
2022-12-11T15:59:50.721Z,26.95
2022-12-11T16:02:17.283Z,22.88
2022-12-11T16:04:43.799Z,28.55
2022-12-11T16:07:15.949Z,26.70
2022-12-11T16:09:42.823Z,21.95
2022-12-11T16:12:09.364Z,31.92
2022-12-11T16:14:38.205Z,23.98
2022-12-11T16:17:05.339Z,23.27
2022-12-11T16:19:31.633Z,28.77
2022-12-11T16:21:58.002Z,25.52
2022-12-11T16:24:24.325Z,27.77
2022-12-11T16:26:50.598Z,28.67
2022-12-11T16:29:16.886Z,25.92
2022-12-11T16:31:43.161Z,23.15
2022-12-11T16:34:09.690Z,28.10
2022-12-11T16:36:35.997Z,25.40
2022-12-11T16:39:02.314Z,26.40
2022-12-11T16:41:28.869Z,27.60
2022-12-11T16:43:55.165Z,34.50
2022-12-11T16:46:22.071Z,35.50
2022-12-11T16:48:48.884Z,33.58
2022-12-11T16:51:15.733Z,30.88
2022-12-11T16:53:42.022Z,35.38
2022-12-11T16:56:08.670Z,30.40
2022-12-11T16:58:35.412Z,25.58
2022-12-11T17:01:02.246Z,29.65
2022-12-11T17:03:31.841Z,31.90
2022-12-11T17:05:58.185Z,30.63
2022-12-11T17:08:25.008Z,26.83
2022-12-11T17:10:52.247Z,25.60
2022-12-11T17:13:18.725Z,25.88
2022-12-11T17:15:45.394Z,27.52
2022-12-11T17:18:11.791Z,23.50
2022-12-11T17:20:42.007Z,30.08
2022-12-11T17:23:10.559Z,27.27
2022-12-11T17:25:40.886Z,31.85
2022-12-11T17:28:07.385Z,30.65
2022-12-11T17:30:33.659Z,27.95
2022-12-11T17:32:59.940Z,32.65
2022-12-11T17:35:26.210Z,27.83
2022-12-11T17:37:52.785Z,29.98
2022-12-11T17:40:20.720Z,27.90
2022-12-11T17:42:47.616Z,27.10
2022-12-11T17:45:14.194Z,29.27
2022-12-11T17:47:40.730Z,29.95
2022-12-11T17:50:07.353Z,27.53
2022-12-11T17:52:35.019Z,25.55
2022-12-11T17:55:03.982Z,29.37
2022-12-11T17:57:30.513Z,29.77
2022-12-11T17:59:56.953Z,25.90
2022-12-11T18:02:23.253Z,28.33
2022-12-11T18:04:49.877Z,29.67
2022-12-11T18:07:16.235Z,25.98
2022-12-11T18:09:42.527Z,32.53
2022-12-11T18:12:09.199Z,28.30
2022-12-11T18:14:35.630Z,28.80
2022-12-11T18:17:01.983Z,26.87
2022-12-11T18:19:28.505Z,29.27
2022-12-11T18:21:55.099Z,39.17
2022-12-11T18:24:22.044Z,33.67
2022-12-11T18:26:48.787Z,31.33
2022-12-11T18:29:15.145Z,37.63
2022-12-11T18:31:42.887Z,29.37
2022-12-11T18:34:10.011Z,29.10
2022-12-11T18:36:36.304Z,37.40
2022-12-11T18:39:03.308Z,37.63
2022-12-11T18:41:29.624Z,32.60
2022-12-11T18:43:55.901Z,32.13
2022-12-11T18:46:22.287Z,42.17
2022-12-11T18:48:49.054Z,36.27
2022-12-11T18:51:19.279Z,34.97
2022-12-11T18:53:46.088Z,30.58
2022-12-11T18:56:13.881Z,33.83
2022-12-11T18:58:40.612Z,35.20
2022-12-11T19:01:11.173Z,38.67
2022-12-11T19:06:07.988Z,36.67
2022-12-11T19:11:00.485Z,34.60
2022-12-11T19:13:26.865Z,40.67
2022-12-11T19:15:53.457Z,47.33
2022-12-11T19:18:19.817Z,32.40
2022-12-11T19:20:50.593Z,49.87
2022-12-11T19:23:21.195Z,32.10
2022-12-11T19:25:47.892Z,41.37
2022-12-11T19:28:14.627Z,36.03
2022-12-11T19:30:48.882Z,45.97
2022-12-11T19:33:16.295Z,42.40
2022-12-11T19:35:42.853Z,36.40
2022-12-11T19:38:09.395Z,38.10
2022-12-11T19:40:41.069Z,44.00
2022-12-11T19:43:07.511Z,39.83
2022-12-11T19:45:33.927Z,38.50
2022-12-11T19:48:00.209Z,50.27
2022-12-11T19:50:26.914Z,54.97
2022-12-11T19:52:53.304Z,50.50
2022-12-11T19:55:21.760Z,45.40
2022-12-11T19:57:48.384Z,51.30
2022-12-11T20:00:15.140Z,49.30
2022-12-11T20:02:41.400Z,47.50
2022-12-11T20:05:08.127Z,40.30
2022-12-11T20:07:34.498Z,37.67
2022-12-11T20:10:00.933Z,38.87
2022-12-11T20:12:28.428Z,29.03
2022-12-11T20:14:54.792Z,28.43
2022-12-11T20:17:21.124Z,30.47
2022-12-11T20:19:47.552Z,34.50
2022-12-11T20:22:13.887Z,30.27
2022-12-11T20:24:40.480Z,23.80
2022-12-11T20:27:06.743Z,25.07
2022-12-11T20:29:33.094Z,27.90
2022-12-11T20:32:00.392Z,23.63
2022-12-11T20:34:27.298Z,21.97
2022-12-11T20:36:54.088Z,21.50
2022-12-11T20:39:20.370Z,21.33
2022-12-11T20:41:46.645Z,19.83
2022-12-11T20:44:13.033Z,23.10
2022-12-11T20:46:39.525Z,23.20
2022-12-11T20:49:12.537Z,25.37
2022-12-11T20:51:39.341Z,21.07
2022-12-11T20:54:05.724Z,19.40
2022-12-11T20:56:32.167Z,15.60
2022-12-11T20:58:59.799Z,25.37
2022-12-11T21:01:27.120Z,23.50
2022-12-11T21:03:53.722Z,19.83
2022-12-11T21:06:33.357Z,24.13
2022-12-11T21:09:07.268Z,23.53
2022-12-11T21:11:33.632Z,21.83
2022-12-11T21:14:00.113Z,21.03
2022-12-11T21:16:26.528Z,24.40
2022-12-11T21:18:53.378Z,28.70
2022-12-11T21:21:19.667Z,27.93
2022-12-11T21:23:45.955Z,24.07
2022-12-11T21:26:12.424Z,27.73
2022-12-11T21:28:38.925Z,24.60
2022-12-11T21:31:06.734Z,23.53
2022-12-11T21:33:33.293Z,26.33
2022-12-11T21:36:00.078Z,27.90
2022-12-11T21:38:27.183Z,25.47
2022-12-11T21:40:54.325Z,28.63
2022-12-11T21:43:20.680Z,27.07
2022-12-11T21:46:02.856Z,26.70
2022-12-11T21:48:29.393Z,24.43
2022-12-11T21:50:56.280Z,31.27
2022-12-11T21:53:22.813Z,33.37
2022-12-11T21:55:49.112Z,33.47
2022-12-11T21:58:15.877Z,33.30
2022-12-11T22:00:42.317Z,29.37
2022-12-11T22:03:08.764Z,35.53
2022-12-11T22:05:35.170Z,32.57
2022-12-11T22:08:01.546Z,36.67
2022-12-11T22:10:28.493Z,29.57
2022-12-11T22:12:54.813Z,37.80
2022-12-11T22:15:21.149Z,44.93
2022-12-11T22:17:47.579Z,39.43
2022-12-11T22:20:14.613Z,38.67
2022-12-11T22:22:40.964Z,32.37
2022-12-11T22:25:07.861Z,34.87
2022-12-11T22:27:34.257Z,38.90
2022-12-11T22:30:00.831Z,35.73
2022-12-11T22:32:27.750Z,34.97
2022-12-11T22:34:56.226Z,40.23
2022-12-11T22:37:23.044Z,36.47
2022-12-11T22:39:49.570Z,41.70
2022-12-11T22:42:15.877Z,32.67
2022-12-11T22:44:42.237Z,42.93
2022-12-11T22:47:08.538Z,36.73
2022-12-11T22:49:35.725Z,39.53
2022-12-11T22:52:02.249Z,36.67
2022-12-11T22:54:28.533Z,33.70
2022-12-11T22:56:54.909Z,35.20
2022-12-11T22:59:21.186Z,31.47
2022-12-11T23:01:47.568Z,31.17
2022-12-11T23:04:13.836Z,33.97
2022-12-11T23:06:40.705Z,34.77
2022-12-11T23:09:07.265Z,39.20
2022-12-11T23:11:36.253Z,38.73
2022-12-11T23:14:03.810Z,36.23
2022-12-11T23:16:30.313Z,33.43
2022-12-11T23:18:57.465Z,38.47
2022-12-11T23:21:25.090Z,38.73
2022-12-11T23:23:51.412Z,38.47
2022-12-11T23:26:21.023Z,47.67
2022-12-11T23:28:47.793Z,40.75
2022-12-11T23:31:14.705Z,38.70
2022-12-11T23:33:44.808Z,42.27
2022-12-11T23:36:14.473Z,33.83
2022-12-11T23:38:41.568Z,43.65
2022-12-11T23:41:08.712Z,41.63
2022-12-11T23:43:36.548Z,37.90
2022-12-11T23:46:03.957Z,54.07
2022-12-11T23:48:31.227Z,37.90
2022-12-11T23:50:58.601Z,40.53
2022-12-11T23:53:24.870Z,41.07
2022-12-11T23:55:51.145Z,41.97
2022-12-11T23:58:17.884Z,41.20
